MMTJKVNY

Guest
Details From MMTJ - GENERAL ABELARDO L RODRIGUEZ INTL
To KVNY - Van Nuys
Flight Number -
Tags generated
Created
Modified
Stats Distance 126 nm / 233 km
Max Altitude 7,100 ft / 2,164 m
Waypoints 3
Social Downloads 0
Likes 0
Share VATSIM

Download

Looking for another format? Having issues loading an existing format? Contact us
Advertisement - Login to hide

Notes

Basic altitude profile: - Ascent Rate: 2500ft/min - Ascent Speed: 250kts - Cruise Altitude: 35000ft - Cruise Speed: 420kts - Descent Rate: 1500ft/min - Descent Speed: 250kts Options: - Use NATs: no - Use PACOTS: no - Use low airways: yes - Use high airways: no

Route

MMTJ SLI KVNY

ID Type Via Altitude Latitude Longitude Leg Dist Tot Dist Heading (true) Name
O MMTJ APT - 0 ft / 0 m 32.54106˚ -116.97016˚ - 0 nm - GENERAL ABELARDO L RODRIGUEZ INTL
SLI DME - 7,100 ft / 2,164 m 33.78330˚ -118.05476˚ 92 nm 92 nm 324° / 324° SEAL BEACH VORTAC
O KVNY APT - 0 ft / 0 m 34.21072˚ -118.48984˚ 33 nm 125 nm 320° / 320° Van Nuys

Altitude Profile

Advertisement - Login to hide

MMTJ

Details ICAO MMTJ (TIJ)
Name GENERAL ABELARDO L RODRIGUEZ INTL
Region Mexico
Timezone America/Tijuana (UTC-7.0)
Stats Elevation 489 ft / 149 m (AMSL)
Location 32.541063° -116.970158°
Runways 1
Magnetic Variation 11.405° E

METAR

Not found

TAF

TAF TAF MMTJ 202309Z 2100/2206 28008KT P6SM OVC020 TX19/2120Z TN14/2109Z FM210600 00000KT 4SM HZ OVC010 FM211600 28010KT P6SM OVC020 FM212000 30010KT P6SM BKN025 FM220300 00000KT 5SM HZ OVC015

Decode

Departure Runways

ID Width Length Bearing (true) Bearing (mag) Surface Threshold Offset Overrun Length
09 144 ft / 44 m 9,660 ft / 2,944 m 98.85° 87.44° Concrete 0 ft / 0 m 180 ft / 55 m
27 144 ft / 44 m 9,660 ft / 2,944 m 278.86° 267.45° Concrete 0 ft / 0 m 180 ft / 55 m

KVNY

Details ICAO KVNY (VNY)
Name Van Nuys
Region United States
Timezone America/Los_Angeles (UTC-7.0)
Stats Elevation 802 ft / 244 m (AMSL)
Location 34.210723° -118.489841°
Runways 2
Magnetic Variation 12.037° E

METAR

KVNY 210551Z AUTO 22004KT 10SM OVC029 17/11 A2987 RMK AO2 SLP109 T01670106 10200 20167 50002

Decode

TAF

TAF KVNY 210533Z 2106/2206 VRB03KT P6SM BKN030 FM211000 VRB03KT P6SM OVC025 FM211900 16008KT P6SM OVC035 FM220400 VRB03KT P6SM OVC030

Decode

Destination Runways

ID Width Length Bearing (true) Bearing (mag) Surface Threshold Offset Overrun Length
16L 75 ft / 23 m 4,021 ft / 1,226 m 175.53° 163.49° Asphalt 1,430 ft / 436 m 0 ft / 0 m
16R 151 ft / 46 m 8,022 ft / 2,445 m 175.54° 163.50° Asphalt 1,430 ft / 436 m 151 ft / 46 m
34L 151 ft / 46 m 8,022 ft / 2,445 m 355.54° 343.50° Asphalt 0 ft / 0 m 151 ft / 46 m
34R 75 ft / 23 m 4,021 ft / 1,226 m 355.53° 343.49° Asphalt 0 ft / 0 m 0 ft / 0 m

Approach Navaids

Runway Type Ident Frequency Range Bearing (true) Bearing (mag) Slope Elevation
16R Localiser IVNY 111.30 MHz 18 nm / 33 km 175.54° 163.50° - 741 ft / 226 m (AMSL)
16R Glidescope IVNY 111.30 MHz 10 nm / 19 km 175.54° 163.50° 3.90° 784 ft / 239 m (AMSL)